sensor_id;sensor_type;location;lat;lon;timestamp;P1;durP1;ratioP1;P2;durP2;ratioP2
23474;SDS011;11910;52.086;21.066;2022-08-01T00:00:21;12.20;;;5.45;;
23474;SDS011;11910;52.086;21.066;2022-08-01T00:02:47;7.45;;;5.10;;
23474;SDS011;11910;52.086;21.066;2022-08-01T00:05:13;5.93;;;4.93;;
23474;SDS011;11910;52.086;21.066;2022-08-01T00:07:39;8.65;;;5.07;;
23474;SDS011;11910;52.086;21.066;2022-08-01T00:10:05;8.77;;;4.97;;
23474;SDS011;11910;52.086;21.066;2022-08-01T00:12:33;7.70;;;4.75;;
23474;SDS011;11910;52.086;21.066;2022-08-01T00:14:59;10.55;;;5.15;;
23474;SDS011;11910;52.086;21.066;2022-08-01T00:17:25;8.50;;;4.68;;
23474;SDS011;11910;52.086;21.066;2022-08-01T00:19:51;10.63;;;5.00;;
23474;SDS011;11910;52.086;21.066;2022-08-01T00:22:16;9.38;;;5.57;;
23474;SDS011;11910;52.086;21.066;2022-08-01T00:24:42;7.90;;;4.80;;
23474;SDS011;11910;52.086;21.066;2022-08-01T00:27:08;6.93;;;5.13;;
23474;SDS011;11910;52.086;21.066;2022-08-01T00:29:33;7.43;;;4.78;;
23474;SDS011;11910;52.086;21.066;2022-08-01T00:31:59;7.15;;;4.35;;
23474;SDS011;11910;52.086;21.066;2022-08-01T00:34:25;6.85;;;4.50;;
23474;SDS011;11910;52.086;21.066;2022-08-01T00:36:50;8.18;;;4.57;;
23474;SDS011;11910;52.086;21.066;2022-08-01T00:39:16;8.40;;;4.40;;
23474;SDS011;11910;52.086;21.066;2022-08-01T00:41:42;8.13;;;4.50;;
23474;SDS011;11910;52.086;21.066;2022-08-01T00:44:07;7.90;;;5.20;;
23474;SDS011;11910;52.086;21.066;2022-08-01T00:46:33;5.45;;;4.45;;
23474;SDS011;11910;52.086;21.066;2022-08-01T00:48:59;6.15;;;4.50;;
23474;SDS011;11910;52.086;21.066;2022-08-01T00:51:25;4.88;;;4.03;;
23474;SDS011;11910;52.086;21.066;2022-08-01T00:53:51;6.88;;;4.65;;
23474;SDS011;11910;52.086;21.066;2022-08-01T00:56:21;8.07;;;4.90;;
23474;SDS011;11910;52.086;21.066;2022-08-01T00:58:49;6.47;;;4.53;;
23474;SDS011;11910;52.086;21.066;2022-08-01T01:01:14;6.38;;;4.22;;
23474;SDS011;11910;52.086;21.066;2022-08-01T01:03:41;5.55;;;4.20;;
23474;SDS011;11910;52.086;21.066;2022-08-01T01:20:12;7.63;;;4.88;;
23474;SDS011;11910;52.086;21.066;2022-08-01T01:25:39;12.35;;;5.43;;
23474;SDS011;11910;52.086;21.066;2022-08-01T01:31:12;9.25;;;5.53;;
23474;SDS011;11910;52.086;21.066;2022-08-01T01:33:39;11.50;;;6.43;;
23474;SDS011;11910;52.086;21.066;2022-08-01T01:36:08;8.35;;;5.43;;
23474;SDS011;11910;52.086;21.066;2022-08-01T01:38:37;8.23;;;4.85;;
23474;SDS011;11910;52.086;21.066;2022-08-01T01:41:07;8.23;;;5.13;;
23474;SDS011;11910;52.086;21.066;2022-08-01T01:43:36;8.80;;;6.00;;
23474;SDS011;11910;52.086;21.066;2022-08-01T01:46:04;8.57;;;5.03;;
23474;SDS011;11910;52.086;21.066;2022-08-01T01:48:31;12.70;;;6.10;;
23474;SDS011;11910;52.086;21.066;2022-08-01T01:51:00;8.40;;;5.25;;
23474;SDS011;11910;52.086;21.066;2022-08-01T01:53:27;9.90;;;5.57;;
23474;SDS011;11910;52.086;21.066;2022-08-01T01:55:55;9.05;;;5.45;;
23474;SDS011;11910;52.086;21.066;2022-08-01T01:58:23;10.02;;;5.40;;
23474;SDS011;11910;52.086;21.066;2022-08-01T02:00:51;9.60;;;5.38;;
23474;SDS011;11910;52.086;21.066;2022-08-01T02:03:20;7.57;;;4.93;;
23474;SDS011;11910;52.086;21.066;2022-08-01T02:05:47;8.65;;;5.05;;
23474;SDS011;11910;52.086;21.066;2022-08-01T02:08:14;9.23;;;5.20;;
23474;SDS011;11910;52.086;21.066;2022-08-01T02:10:41;10.80;;;4.95;;
23474;SDS011;11910;52.086;21.066;2022-08-01T02:13:28;9.38;;;5.10;;
23474;SDS011;11910;52.086;21.066;2022-08-01T02:15:56;6.43;;;5.03;;
23474;SDS011;11910;52.086;21.066;2022-08-01T02:18:23;10.07;;;5.90;;
23474;SDS011;11910;52.086;21.066;2022-08-01T02:20:49;7.60;;;4.93;;
23474;SDS011;11910;52.086;21.066;2022-08-01T02:23:17;10.77;;;6.57;;
23474;SDS011;11910;52.086;21.066;2022-08-01T02:25:45;17.08;;;5.57;;
23474;SDS011;11910;52.086;21.066;2022-08-01T02:28:13;9.70;;;5.03;;
23474;SDS011;11910;52.086;21.066;2022-08-01T02:30:44;11.02;;;5.03;;
23474;SDS011;11910;52.086;21.066;2022-08-01T02:33:16;8.45;;;4.95;;
23474;SDS011;11910;52.086;21.066;2022-08-01T02:35:43;12.95;;;5.72;;
23474;SDS011;11910;52.086;21.066;2022-08-01T02:38:12;11.35;;;4.90;;
23474;SDS011;11910;52.086;21.066;2022-08-01T02:40:39;6.82;;;4.55;;
23474;SDS011;11910;52.086;21.066;2022-08-01T02:43:10;12.00;;;4.50;;
23474;SDS011;11910;52.086;21.066;2022-08-01T02:45:42;10.35;;;5.03;;
23474;SDS011;11910;52.086;21.066;2022-08-01T02:48:12;11.38;;;4.93;;
23474;SDS011;11910;52.086;21.066;2022-08-01T02:50:42;8.05;;;4.50;;
23474;SDS011;11910;52.086;21.066;2022-08-01T02:53:11;10.57;;;4.78;;
23474;SDS011;11910;52.086;21.066;2022-08-01T02:55:38;11.45;;;5.63;;
23474;SDS011;11910;52.086;21.066;2022-08-01T02:58:06;6.60;;;4.40;;
23474;SDS011;11910;52.086;21.066;2022-08-01T03:00:33;9.25;;;4.97;;
23474;SDS011;11910;52.086;21.066;2022-08-01T03:03:00;7.90;;;4.82;;
23474;SDS011;11910;52.086;21.066;2022-08-01T03:05:28;13.05;;;5.32;;
23474;SDS011;11910;52.086;21.066;2022-08-01T03:07:55;12.07;;;5.15;;
23474;SDS011;11910;52.086;21.066;2022-08-01T03:10:23;11.95;;;5.35;;
23474;SDS011;11910;52.086;21.066;2022-08-01T03:12:51;10.68;;;5.22;;
23474;SDS011;11910;52.086;21.066;2022-08-01T03:15:17;10.93;;;4.97;;
23474;SDS011;11910;52.086;21.066;2022-08-01T03:17:44;8.82;;;4.70;;
23474;SDS011;11910;52.086;21.066;2022-08-01T03:20:13;14.73;;;4.55;;
23474;SDS011;11910;52.086;21.066;2022-08-01T03:22:40;11.57;;;4.72;;
23474;SDS011;11910;52.086;21.066;2022-08-01T03:25:08;10.52;;;4.72;;
23474;SDS011;11910;52.086;21.066;2022-08-01T03:27:36;8.52;;;4.40;;
23474;SDS011;11910;52.086;21.066;2022-08-01T03:30:03;11.05;;;4.32;;
23474;SDS011;11910;52.086;21.066;2022-08-01T03:32:29;11.80;;;4.60;;
23474;SDS011;11910;52.086;21.066;2022-08-01T03:34:55;10.63;;;5.07;;
23474;SDS011;11910;52.086;21.066;2022-08-01T03:37:26;15.75;;;5.38;;
23474;SDS011;11910;52.086;21.066;2022-08-01T03:40:04;7.05;;;4.50;;
23474;SDS011;11910;52.086;21.066;2022-08-01T03:42:35;8.75;;;4.85;;
23474;SDS011;11910;52.086;21.066;2022-08-01T03:45:07;8.85;;;4.55;;
23474;SDS011;11910;52.086;21.066;2022-08-01T03:47:37;14.05;;;5.75;;
23474;SDS011;11910;52.086;21.066;2022-08-01T03:50:09;12.10;;;5.63;;
23474;SDS011;11910;52.086;21.066;2022-08-01T03:52:36;7.53;;;5.20;;
23474;SDS011;11910;52.086;21.066;2022-08-01T03:55:05;7.38;;;4.80;;
23474;SDS011;11910;52.086;21.066;2022-08-01T03:57:34;6.43;;;5.20;;
23474;SDS011;11910;52.086;21.066;2022-08-01T04:00:01;7.65;;;4.85;;
23474;SDS011;11910;52.086;21.066;2022-08-01T04:02:31;9.15;;;4.80;;
23474;SDS011;11910;52.086;21.066;2022-08-01T04:04:58;10.40;;;5.35;;
23474;SDS011;11910;52.086;21.066;2022-08-01T04:07:29;12.68;;;7.30;;
23474;SDS011;11910;52.086;21.066;2022-08-01T04:09:56;10.10;;;7.13;;
23474;SDS011;11910;52.086;21.066;2022-08-01T04:12:22;9.70;;;5.82;;
23474;SDS011;11910;52.086;21.066;2022-08-01T04:14:48;11.43;;;6.50;;
23474;SDS011;11910;52.086;21.066;2022-08-01T04:17:14;12.18;;;6.00;;
23474;SDS011;11910;52.086;21.066;2022-08-01T04:19:41;15.75;;;6.22;;
23474;SDS011;11910;52.086;21.066;2022-08-01T04:22:08;8.35;;;6.22;;
23474;SDS011;11910;52.086;21.066;2022-08-01T04:24:35;8.43;;;5.78;;
23474;SDS011;11910;52.086;21.066;2022-08-01T04:27:01;9.95;;;6.50;;
23474;SDS011;11910;52.086;21.066;2022-08-01T04:29:34;12.48;;;7.20;;
23474;SDS011;11910;52.086;21.066;2022-08-01T04:32:02;13.20;;;6.65;;
23474;SDS011;11910;52.086;21.066;2022-08-01T04:34:30;9.50;;;6.28;;
23474;SDS011;11910;52.086;21.066;2022-08-01T04:36:58;9.38;;;6.50;;
23474;SDS011;11910;52.086;21.066;2022-08-01T04:39:26;10.35;;;6.32;;
23474;SDS011;11910;52.086;21.066;2022-08-01T04:41:56;13.52;;;6.75;;
23474;SDS011;11910;52.086;21.066;2022-08-01T04:44:28;9.98;;;6.65;;
23474;SDS011;11910;52.086;21.066;2022-08-01T04:46:54;9.10;;;6.78;;
23474;SDS011;11910;52.086;21.066;2022-08-01T04:49:21;12.18;;;7.05;;
23474;SDS011;11910;52.086;21.066;2022-08-01T04:51:55;14.85;;;6.70;;
23474;SDS011;11910;52.086;21.066;2022-08-01T04:54:26;13.20;;;8.15;;
23474;SDS011;11910;52.086;21.066;2022-08-01T04:56:55;10.68;;;6.68;;
23474;SDS011;11910;52.086;21.066;2022-08-01T04:59:25;11.13;;;6.68;;
23474;SDS011;11910;52.086;21.066;2022-08-01T05:02:07;10.38;;;7.03;;
23474;SDS011;11910;52.086;21.066;2022-08-01T05:04:32;9.88;;;7.30;;
23474;SDS011;11910;52.086;21.066;2022-08-01T05:06:59;12.93;;;7.07;;
23474;SDS011;11910;52.086;21.066;2022-08-01T05:09:25;12.10;;;6.85;;
23474;SDS011;11910;52.086;21.066;2022-08-01T05:11:50;11.80;;;7.32;;
23474;SDS011;11910;52.086;21.066;2022-08-01T05:14:16;10.80;;;7.13;;
23474;SDS011;11910;52.086;21.066;2022-08-01T05:16:42;9.13;;;7.30;;
23474;SDS011;11910;52.086;21.066;2022-08-01T05:19:08;9.80;;;6.93;;
23474;SDS011;11910;52.086;21.066;2022-08-01T05:21:34;12.13;;;7.40;;
23474;SDS011;11910;52.086;21.066;2022-08-01T05:24:00;9.52;;;6.75;;
23474;SDS011;11910;52.086;21.066;2022-08-01T05:26:26;8.82;;;7.68;;
23474;SDS011;11910;52.086;21.066;2022-08-01T05:28:51;11.05;;;7.57;;
23474;SDS011;11910;52.086;21.066;2022-08-01T05:31:17;10.02;;;7.40;;
23474;SDS011;11910;52.086;21.066;2022-08-01T05:33:43;10.10;;;7.68;;
23474;SDS011;11910;52.086;21.066;2022-08-01T05:36:09;10.73;;;7.88;;
23474;SDS011;11910;52.086;21.066;2022-08-01T05:38:34;10.13;;;8.25;;
23474;SDS011;11910;52.086;21.066;2022-08-01T05:41:00;8.95;;;7.32;;
23474;SDS011;11910;52.086;21.066;2022-08-01T05:43:26;8.02;;;7.00;;
23474;SDS011;11910;52.086;21.066;2022-08-01T05:45:51;12.88;;;8.05;;
23474;SDS011;11910;52.086;21.066;2022-08-01T05:48:17;11.57;;;8.07;;
23474;SDS011;11910;52.086;21.066;2022-08-01T05:50:43;9.30;;;8.43;;
23474;SDS011;11910;52.086;21.066;2022-08-01T05:53:08;8.70;;;7.68;;
23474;SDS011;11910;52.086;21.066;2022-08-01T05:55:34;13.38;;;7.93;;
23474;SDS011;11910;52.086;21.066;2022-08-01T05:58:00;9.98;;;7.40;;
23474;SDS011;11910;52.086;21.066;2022-08-01T06:00:26;11.32;;;6.85;;
23474;SDS011;11910;52.086;21.066;2022-08-01T06:02:52;9.27;;;6.70;;
23474;SDS011;11910;52.086;21.066;2022-08-01T06:05:17;8.32;;;7.13;;
23474;SDS011;11910;52.086;21.066;2022-08-01T06:07:43;12.98;;;7.35;;
23474;SDS011;11910;52.086;21.066;2022-08-01T06:10:09;7.13;;;6.35;;
23474;SDS011;11910;52.086;21.066;2022-08-01T06:12:35;9.32;;;6.72;;
23474;SDS011;11910;52.086;21.066;2022-08-01T06:15:01;8.88;;;6.65;;
23474;SDS011;11910;52.086;21.066;2022-08-01T06:17:28;9.13;;;6.20;;
23474;SDS011;11910;52.086;21.066;2022-08-01T06:19:55;12.20;;;6.93;;
23474;SDS011;11910;52.086;21.066;2022-08-01T06:22:21;8.98;;;5.80;;
23474;SDS011;11910;52.086;21.066;2022-08-01T06:24:47;8.20;;;5.63;;
23474;SDS011;11910;52.086;21.066;2022-08-01T06:27:12;11.98;;;5.88;;
23474;SDS011;11910;52.086;21.066;2022-08-01T06:29:38;6.93;;;5.70;;
23474;SDS011;11910;52.086;21.066;2022-08-01T06:32:04;8.20;;;5.78;;
23474;SDS011;11910;52.086;21.066;2022-08-01T06:34:30;9.32;;;5.78;;
23474;SDS011;11910;52.086;21.066;2022-08-01T06:36:55;9.10;;;5.50;;
23474;SDS011;11910;52.086;21.066;2022-08-01T06:39:21;9.25;;;6.57;;
23474;SDS011;11910;52.086;21.066;2022-08-01T06:41:47;8.95;;;6.07;;
23474;SDS011;11910;52.086;21.066;2022-08-01T06:44:13;12.77;;;6.45;;
23474;SDS011;11910;52.086;21.066;2022-08-01T06:46:39;8.27;;;5.80;;
23474;SDS011;11910;52.086;21.066;2022-08-01T06:49:04;9.70;;;5.65;;
23474;SDS011;11910;52.086;21.066;2022-08-01T06:51:30;6.47;;;4.65;;
23474;SDS011;11910;52.086;21.066;2022-08-01T06:53:58;10.23;;;4.97;;
23474;SDS011;11910;52.086;21.066;2022-08-01T06:56:24;7.93;;;4.93;;
23474;SDS011;11910;52.086;21.066;2022-08-01T06:58:50;9.18;;;5.00;;
23474;SDS011;11910;52.086;21.066;2022-08-01T07:01:16;6.72;;;5.28;;
23474;SDS011;11910;52.086;21.066;2022-08-01T07:03:41;7.78;;;5.40;;
23474;SDS011;11910;52.086;21.066;2022-08-01T07:06:07;13.75;;;5.30;;
23474;SDS011;11910;52.086;21.066;2022-08-01T07:08:33;8.65;;;5.07;;
23474;SDS011;11910;52.086;21.066;2022-08-01T07:10:58;6.80;;;4.28;;
23474;SDS011;11910;52.086;21.066;2022-08-01T07:13:25;6.63;;;4.30;;
23474;SDS011;11910;52.086;21.066;2022-08-01T07:15:51;7.78;;;4.35;;
23474;SDS011;11910;52.086;21.066;2022-08-01T07:18:18;7.07;;;4.30;;
23474;SDS011;11910;52.086;21.066;2022-08-01T07:20:44;7.57;;;4.20;;
23474;SDS011;11910;52.086;21.066;2022-08-01T07:23:11;9.50;;;4.25;;
23474;SDS011;11910;52.086;21.066;2022-08-01T07:25:37;5.95;;;4.00;;
23474;SDS011;11910;52.086;21.066;2022-08-01T07:28:03;5.20;;;3.70;;
23474;SDS011;11910;52.086;21.066;2022-08-01T07:30:29;12.30;;;3.97;;
23474;SDS011;11910;52.086;21.066;2022-08-01T07:32:55;6.28;;;3.33;;
23474;SDS011;11910;52.086;21.066;2022-08-01T07:35:21;5.03;;;3.10;;
23474;SDS011;11910;52.086;21.066;2022-08-01T07:37:46;5.53;;;3.10;;
23474;SDS011;11910;52.086;21.066;2022-08-01T07:40:12;6.97;;;3.17;;
23474;SDS011;11910;52.086;21.066;2022-08-01T07:42:38;5.10;;;3.00;;
23474;SDS011;11910;52.086;21.066;2022-08-01T07:45:04;6.13;;;2.75;;
23474;SDS011;11910;52.086;21.066;2022-08-01T07:47:30;5.65;;;2.67;;
23474;SDS011;11910;52.086;21.066;2022-08-01T07:49:59;2.83;;;2.60;;
23474;SDS011;11910;52.086;21.066;2022-08-01T07:52:25;7.43;;;2.80;;
23474;SDS011;11910;52.086;21.066;2022-08-01T07:54:52;3.95;;;2.70;;
23474;SDS011;11910;52.086;21.066;2022-08-01T07:57:18;6.18;;;2.53;;
23474;SDS011;11910;52.086;21.066;2022-08-01T07:59:43;3.75;;;2.47;;
23474;SDS011;11910;52.086;21.066;2022-08-01T08:02:09;5.28;;;2.50;;
23474;SDS011;11910;52.086;21.066;2022-08-01T08:04:35;4.30;;;2.55;;
23474;SDS011;11910;52.086;21.066;2022-08-01T08:07:00;6.90;;;2.40;;
23474;SDS011;11910;52.086;21.066;2022-08-01T08:09:26;9.95;;;2.65;;
23474;SDS011;11910;52.086;21.066;2022-08-01T08:11:52;4.03;;;2.72;;
23474;SDS011;11910;52.086;21.066;2022-08-01T08:14:18;9.35;;;4.07;;
23474;SDS011;11910;52.086;21.066;2022-08-01T08:16:43;5.63;;;2.78;;
23474;SDS011;11910;52.086;21.066;2022-08-01T08:19:10;5.95;;;2.85;;
23474;SDS011;11910;52.086;21.066;2022-08-01T08:21:36;7.10;;;2.40;;
23474;SDS011;11910;52.086;21.066;2022-08-01T08:24:02;5.32;;;1.90;;
23474;SDS011;11910;52.086;21.066;2022-08-01T08:26:48;2.20;;;1.73;;
23474;SDS011;11910;52.086;21.066;2022-08-01T08:29:21;7.13;;;2.10;;
23474;SDS011;11910;52.086;21.066;2022-08-01T08:31:47;5.00;;;2.47;;
23474;SDS011;11910;52.086;21.066;2022-08-01T08:34:13;3.65;;;2.00;;
23474;SDS011;11910;52.086;21.066;2022-08-01T08:36:39;6.45;;;2.45;;
23474;SDS011;11910;52.086;21.066;2022-08-01T08:39:05;8.60;;;2.58;;
23474;SDS011;11910;52.086;21.066;2022-08-01T08:41:32;3.92;;;2.13;;
23474;SDS011;11910;52.086;21.066;2022-08-01T08:44:00;6.32;;;2.28;;
23474;SDS011;11910;52.086;21.066;2022-08-01T08:46:27;3.80;;;1.63;;
23474;SDS011;11910;52.086;21.066;2022-08-01T08:48:54;6.90;;;1.88;;
23474;SDS011;11910;52.086;21.066;2022-08-01T08:51:21;6.60;;;2.03;;
23474;SDS011;11910;52.086;21.066;2022-08-01T08:53:51;4.50;;;1.80;;
23474;SDS011;11910;52.086;21.066;2022-08-01T08:56:19;6.97;;;2.17;;
23474;SDS011;11910;52.086;21.066;2022-08-01T08:58:46;2.25;;;1.75;;
23474;SDS011;11910;52.086;21.066;2022-08-01T09:01:12;2.90;;;1.77;;
23474;SDS011;11910;52.086;21.066;2022-08-01T09:03:38;2.70;;;1.67;;
23474;SDS011;11910;52.086;21.066;2022-08-01T09:06:05;3.63;;;1.55;;
23474;SDS011;11910;52.086;21.066;2022-08-01T09:08:32;3.55;;;1.75;;
23474;SDS011;11910;52.086;21.066;2022-08-01T09:10:58;6.93;;;1.75;;
23474;SDS011;11910;52.086;21.066;2022-08-01T09:13:24;6.60;;;1.83;;
23474;SDS011;11910;52.086;21.066;2022-08-01T09:15:50;5.22;;;1.80;;
23474;SDS011;11910;52.086;21.066;2022-08-01T09:18:35;2.30;;;1.98;;
23474;SDS011;11910;52.086;21.066;2022-08-01T09:23:35;4.73;;;1.97;;
23474;SDS011;11910;52.086;21.066;2022-08-01T09:26:14;2.17;;;1.80;;
23474;SDS011;11910;52.086;21.066;2022-08-01T09:28:41;3.40;;;1.90;;
23474;SDS011;11910;52.086;21.066;2022-08-01T09:31:08;4.18;;;1.52;;
23474;SDS011;11910;52.086;21.066;2022-08-01T09:36:26;4.00;;;1.75;;
23474;SDS011;11910;52.086;21.066;2022-08-01T09:39:11;3.95;;;1.63;;
23474;SDS011;11910;52.086;21.066;2022-08-01T09:41:38;5.70;;;2.13;;
23474;SDS011;11910;52.086;21.066;2022-08-01T09:44:04;5.28;;;1.85;;
23474;SDS011;11910;52.086;21.066;2022-08-01T09:46:30;4.65;;;1.80;;
23474;SDS011;11910;52.086;21.066;2022-08-01T09:48:56;1.70;;;1.50;;
23474;SDS011;11910;52.086;21.066;2022-08-01T09:51:30;3.15;;;1.85;;
23474;SDS011;11910;52.086;21.066;2022-08-01T09:53:58;2.78;;;1.90;;
23474;SDS011;11910;52.086;21.066;2022-08-01T09:56:24;4.18;;;1.52;;
23474;SDS011;11910;52.086;21.066;2022-08-01T10:01:21;1.95;;;1.50;;
23474;SDS011;11910;52.086;21.066;2022-08-01T10:03:55;4.43;;;2.30;;
23474;SDS011;11910;52.086;21.066;2022-08-01T10:06:32;4.57;;;1.92;;
23474;SDS011;11910;52.086;21.066;2022-08-01T10:08:58;2.22;;;1.70;;
23474;SDS011;11910;52.086;21.066;2022-08-01T10:11:25;2.85;;;1.92;;
23474;SDS011;11910;52.086;21.066;2022-08-01T10:13:53;3.67;;;1.90;;
23474;SDS011;11910;52.086;21.066;2022-08-01T10:16:20;2.10;;;1.90;;
23474;SDS011;11910;52.086;21.066;2022-08-01T10:18:46;5.85;;;2.10;;
23474;SDS011;11910;52.086;21.066;2022-08-01T10:21:12;5.03;;;1.90;;
23474;SDS011;11910;52.086;21.066;2022-08-01T10:23:38;5.13;;;2.03;;
23474;SDS011;11910;52.086;21.066;2022-08-01T10:26:07;3.15;;;1.80;;
23474;SDS011;11910;52.086;21.066;2022-08-01T10:28:35;2.33;;;2.00;;
23474;SDS011;11910;52.086;21.066;2022-08-01T10:31:02;3.03;;;1.90;;
23474;SDS011;11910;52.086;21.066;2022-08-01T10:33:28;2.80;;;1.98;;
23474;SDS011;11910;52.086;21.066;2022-08-01T10:35:55;3.53;;;2.10;;
23474;SDS011;11910;52.086;21.066;2022-08-01T10:38:22;5.13;;;1.80;;
23474;SDS011;11910;52.086;21.066;2022-08-01T10:40:48;4.10;;;1.95;;
23474;SDS011;11910;52.086;21.066;2022-08-01T10:43:16;4.43;;;2.10;;
23474;SDS011;11910;52.086;21.066;2022-08-01T10:45:42;3.95;;;2.00;;
23474;SDS011;11910;52.086;21.066;2022-08-01T10:48:16;3.95;;;2.00;;
23474;SDS011;11910;52.086;21.066;2022-08-01T10:50:51;3.40;;;2.05;;
23474;SDS011;11910;52.086;21.066;2022-08-01T10:53:19;3.53;;;2.25;;
23474;SDS011;11910;52.086;21.066;2022-08-01T10:58:35;4.45;;;2.20;;
23474;SDS011;11910;52.086;21.066;2022-08-01T11:06:28;2.92;;;1.92;;
23474;SDS011;11910;52.086;21.066;2022-08-01T11:12:13;4.65;;;2.05;;
23474;SDS011;11910;52.086;21.066;2022-08-01T11:30:42;3.67;;;1.95;;
23474;SDS011;11910;52.086;21.066;2022-08-01T11:33:09;5.47;;;2.20;;
23474;SDS011;11910;52.086;21.066;2022-08-01T11:35:36;3.53;;;2.15;;
23474;SDS011;11910;52.086;21.066;2022-08-01T11:38:23;5.70;;;2.35;;
23474;SDS011;11910;52.086;21.066;2022-08-01T11:54:41;3.97;;;2.20;;
23474;SDS011;11910;52.086;21.066;2022-08-01T11:57:22;5.07;;;2.58;;
23474;SDS011;11910;52.086;21.066;2022-08-01T11:59:51;8.02;;;2.90;;
23474;SDS011;11910;52.086;21.066;2022-08-01T12:04:50;3.80;;;2.65;;
23474;SDS011;11910;52.086;21.066;2022-08-01T12:07:24;5.80;;;3.17;;
23474;SDS011;11910;52.086;21.066;2022-08-01T12:12:24;4.47;;;3.13;;
23474;SDS011;11910;52.086;21.066;2022-08-01T12:14:57;4.10;;;3.40;;
23474;SDS011;11910;52.086;21.066;2022-08-01T12:17:37;5.20;;;3.42;;
23474;SDS011;11910;52.086;21.066;2022-08-01T12:20:05;4.65;;;3.40;;
23474;SDS011;11910;52.086;21.066;2022-08-01T12:22:33;4.65;;;3.45;;
23474;SDS011;11910;52.086;21.066;2022-08-01T12:25:08;4.93;;;3.95;;
23474;SDS011;11910;52.086;21.066;2022-08-01T12:27:42;3.60;;;3.30;;
23474;SDS011;11910;52.086;21.066;2022-08-01T12:30:10;6.05;;;3.78;;
23474;SDS011;11910;52.086;21.066;2022-08-01T12:32:38;6.35;;;3.58;;
23474;SDS011;11910;52.086;21.066;2022-08-01T12:37:52;15.63;;;5.43;;
23474;SDS011;11910;52.086;21.066;2022-08-01T12:40:28;4.20;;;3.10;;
23474;SDS011;11910;52.086;21.066;2022-08-01T12:42:56;4.05;;;3.40;;
23474;SDS011;11910;52.086;21.066;2022-08-01T12:47:50;3.70;;;3.20;;
23474;SDS011;11910;52.086;21.066;2022-08-01T12:50:22;4.72;;;3.92;;
23474;SDS011;11910;52.086;21.066;2022-08-01T12:52:49;3.75;;;2.90;;
23474;SDS011;11910;52.086;21.066;2022-08-01T12:55:19;5.25;;;2.47;;
23474;SDS011;11910;52.086;21.066;2022-08-01T12:58:03;4.13;;;2.55;;
23474;SDS011;11910;52.086;21.066;2022-08-01T13:00:30;3.78;;;2.88;;
23474;SDS011;11910;52.086;21.066;2022-08-01T13:03:06;3.20;;;2.63;;
23474;SDS011;11910;52.086;21.066;2022-08-01T13:05:41;6.40;;;2.92;;
23474;SDS011;11910;52.086;21.066;2022-08-01T13:08:11;4.07;;;2.30;;
23474;SDS011;11910;52.086;21.066;2022-08-01T13:10:39;3.40;;;2.65;;
23474;SDS011;11910;52.086;21.066;2022-08-01T13:13:06;7.63;;;3.80;;
23474;SDS011;11910;52.086;21.066;2022-08-01T13:15:33;4.53;;;2.72;;
23474;SDS011;11910;52.086;21.066;2022-08-01T13:18:22;7.85;;;3.28;;
23474;SDS011;11910;52.086;21.066;2022-08-01T13:23:38;5.55;;;2.58;;
23474;SDS011;11910;52.086;21.066;2022-08-01T13:26:05;5.65;;;2.50;;
23474;SDS011;11910;52.086;21.066;2022-08-01T13:28:31;3.45;;;2.53;;
23474;SDS011;11910;52.086;21.066;2022-08-01T13:33:28;5.47;;;2.20;;
23474;SDS011;11910;52.086;21.066;2022-08-01T13:36:08;7.07;;;2.70;;
23474;SDS011;11910;52.086;21.066;2022-08-01T13:38:33;5.95;;;2.45;;
23474;SDS011;11910;52.086;21.066;2022-08-01T13:41:17;2.42;;;2.22;;
23474;SDS011;11910;52.086;21.066;2022-08-01T13:43:43;3.88;;;2.20;;
23474;SDS011;11910;52.086;21.066;2022-08-01T13:46:09;4.60;;;2.20;;
23474;SDS011;11910;52.086;21.066;2022-08-01T13:48:34;3.88;;;2.20;;
23474;SDS011;11910;52.086;21.066;2022-08-01T13:51:00;3.03;;;2.30;;
23474;SDS011;11910;52.086;21.066;2022-08-01T13:53:26;4.72;;;2.50;;
23474;SDS011;11910;52.086;21.066;2022-08-01T13:55:53;3.40;;;2.28;;
23474;SDS011;11910;52.086;21.066;2022-08-01T13:58:18;5.13;;;2.15;;
23474;SDS011;11910;52.086;21.066;2022-08-01T14:00:44;3.72;;;1.95;;
23474;SDS011;11910;52.086;21.066;2022-08-01T14:03:11;10.10;;;9.13;;
23474;SDS011;11910;52.086;21.066;2022-08-01T14:05:37;5.05;;;2.10;;
23474;SDS011;11910;52.086;21.066;2022-08-01T14:08:03;3.58;;;2.35;;
23474;SDS011;11910;52.086;21.066;2022-08-01T14:10:29;4.35;;;2.17;;
23474;SDS011;11910;52.086;21.066;2022-08-01T14:12:55;3.53;;;2.15;;
23474;SDS011;11910;52.086;21.066;2022-08-01T14:15:22;4.13;;;1.95;;
23474;SDS011;11910;52.086;21.066;2022-08-01T14:17:49;3.28;;;2.10;;
23474;SDS011;11910;52.086;21.066;2022-08-01T14:20:14;2.75;;;2.17;;
23474;SDS011;11910;52.086;21.066;2022-08-01T14:22:44;3.00;;;2.10;;
23474;SDS011;11910;52.086;21.066;2022-08-01T14:25:13;6.97;;;2.40;;
23474;SDS011;11910;52.086;21.066;2022-08-01T14:27:38;2.22;;;1.80;;
23474;SDS011;11910;52.086;21.066;2022-08-01T14:30:06;5.85;;;2.13;;
23474;SDS011;11910;52.086;21.066;2022-08-01T14:32:33;3.03;;;1.98;;
23474;SDS011;11910;52.086;21.066;2022-08-01T14:35:03;2.50;;;2.08;;
23474;SDS011;11910;52.086;21.066;2022-08-01T14:37:30;3.00;;;2.00;;
23474;SDS011;11910;52.086;21.066;2022-08-01T14:39:57;7.70;;;2.20;;
23474;SDS011;11910;52.086;21.066;2022-08-01T14:42:23;3.83;;;2.03;;
23474;SDS011;11910;52.086;21.066;2022-08-01T14:44:49;7.60;;;2.75;;
23474;SDS011;11910;52.086;21.066;2022-08-01T14:47:15;6.13;;;2.30;;
23474;SDS011;11910;52.086;21.066;2022-08-01T14:49:40;5.18;;;2.13;;
23474;SDS011;11910;52.086;21.066;2022-08-01T14:52:06;5.30;;;2.38;;
23474;SDS011;11910;52.086;21.066;2022-08-01T14:54:32;3.63;;;2.30;;
23474;SDS011;11910;52.086;21.066;2022-08-01T14:56:58;7.57;;;2.60;;
23474;SDS011;11910;52.086;21.066;2022-08-01T14:59:23;4.53;;;2.22;;
23474;SDS011;11910;52.086;21.066;2022-08-01T15:01:49;2.25;;;2.00;;
23474;SDS011;11910;52.086;21.066;2022-08-01T15:04:15;3.47;;;2.20;;
23474;SDS011;11910;52.086;21.066;2022-08-01T15:06:42;5.80;;;2.47;;
23474;SDS011;11910;52.086;21.066;2022-08-01T15:09:08;2.28;;;2.08;;
23474;SDS011;11910;52.086;21.066;2022-08-01T15:11:34;4.22;;;2.13;;
23474;SDS011;11910;52.086;21.066;2022-08-01T15:13:59;3.50;;;2.35;;
23474;SDS011;11910;52.086;21.066;2022-08-01T15:16:44;3.33;;;2.00;;
23474;SDS011;11910;52.086;21.066;2022-08-01T15:19:09;5.45;;;2.25;;
23474;SDS011;11910;52.086;21.066;2022-08-01T15:21:35;8.27;;;2.40;;
23474;SDS011;11910;52.086;21.066;2022-08-01T15:24:01;4.82;;;2.42;;
23474;SDS011;11910;52.086;21.066;2022-08-01T15:26:26;6.10;;;2.30;;
23474;SDS011;11910;52.086;21.066;2022-08-01T15:28:54;4.05;;;2.47;;
23474;SDS011;11910;52.086;21.066;2022-08-01T15:31:20;3.22;;;2.20;;
23474;SDS011;11910;52.086;21.066;2022-08-01T15:33:46;2.53;;;2.00;;
23474;SDS011;11910;52.086;21.066;2022-08-01T15:36:11;5.85;;;2.10;;
23474;SDS011;11910;52.086;21.066;2022-08-01T15:38:37;4.43;;;2.78;;
23474;SDS011;11910;52.086;21.066;2022-08-01T15:41:03;4.45;;;2.42;;
23474;SDS011;11910;52.086;21.066;2022-08-01T15:43:28;5.20;;;2.40;;
23474;SDS011;11910;52.086;21.066;2022-08-01T15:45:54;3.35;;;2.50;;
23474;SDS011;11910;52.086;21.066;2022-08-01T15:48:20;3.40;;;2.15;;
23474;SDS011;11910;52.086;21.066;2022-08-01T15:50:45;5.32;;;2.40;;
23474;SDS011;11910;52.086;21.066;2022-08-01T15:53:13;4.25;;;2.38;;
23474;SDS011;11910;52.086;21.066;2022-08-01T15:55:39;6.43;;;2.63;;
23474;SDS011;11910;52.086;21.066;2022-08-01T15:58:05;5.47;;;2.42;;